sensor_id;sensor_type;location;lat;lon;timestamp;temperature;humidity
55313;DHT22;46892;45.668;11.756;2023-03-12T00:01:47;10.90;71.10
55313;DHT22;46892;45.668;11.756;2023-03-12T00:04:13;10.90;71.40
55313;DHT22;46892;45.668;11.756;2023-03-12T00:06:38;10.90;71.50
55313;DHT22;46892;45.668;11.756;2023-03-12T00:09:04;10.80;71.50
55313;DHT22;46892;45.668;11.756;2023-03-12T00:11:30;10.80;71.80
55313;DHT22;46892;45.668;11.756;2023-03-12T00:13:57;10.70;71.90
55313;DHT22;46892;45.668;11.756;2023-03-12T00:16:24;10.70;71.90
55313;DHT22;46892;45.668;11.756;2023-03-12T00:18:51;10.70;71.90
55313;DHT22;46892;45.668;11.756;2023-03-12T00:21:18;10.70;72.00
55313;DHT22;46892;45.668;11.756;2023-03-12T00:23:46;10.60;72.00
55313;DHT22;46892;45.668;11.756;2023-03-12T00:26:13;10.60;71.80
55313;DHT22;46892;45.668;11.756;2023-03-12T00:28:39;10.60;71.60
55313;DHT22;46892;45.668;11.756;2023-03-12T00:31:17;10.60;71.40
55313;DHT22;46892;45.668;11.756;2023-03-12T00:33:43;10.60;71.10
55313;DHT22;46892;45.668;11.756;2023-03-12T00:36:09;10.60;70.80
55313;DHT22;46892;45.668;11.756;2023-03-12T00:38:35;10.60;70.90
55313;DHT22;46892;45.668;11.756;2023-03-12T00:41:01;10.60;70.80
55313;DHT22;46892;45.668;11.756;2023-03-12T00:43:27;10.60;70.80
55313;DHT22;46892;45.668;11.756;2023-03-12T00:45:52;10.60;70.30
55313;DHT22;46892;45.668;11.756;2023-03-12T00:48:18;10.40;70.20
55313;DHT22;46892;45.668;11.756;2023-03-12T00:50:44;10.40;69.80
55313;DHT22;46892;45.668;11.756;2023-03-12T00:53:09;10.40;69.30
55313;DHT22;46892;45.668;11.756;2023-03-12T00:55:35;10.40;69.30
55313;DHT22;46892;45.668;11.756;2023-03-12T00:58:00;10.40;69.20
55313;DHT22;46892;45.668;11.756;2023-03-12T01:00:26;10.40;68.50
55313;DHT22;46892;45.668;11.756;2023-03-12T01:02:52;10.30;68.00
55313;DHT22;46892;45.668;11.756;2023-03-12T01:05:17;10.40;67.40
55313;DHT22;46892;45.668;11.756;2023-03-12T01:07:43;10.30;67.30
55313;DHT22;46892;45.668;11.756;2023-03-12T01:10:12;10.30;67.00
55313;DHT22;46892;45.668;11.756;2023-03-12T01:12:39;10.30;66.10
55313;DHT22;46892;45.668;11.756;2023-03-12T01:15:05;10.30;65.90
55313;DHT22;46892;45.668;11.756;2023-03-12T01:17:31;10.30;65.90
55313;DHT22;46892;45.668;11.756;2023-03-12T01:19:56;10.40;66.00
55313;DHT22;46892;45.668;11.756;2023-03-12T01:22:22;10.30;66.00
55313;DHT22;46892;45.668;11.756;2023-03-12T01:24:48;10.40;65.90
55313;DHT22;46892;45.668;11.756;2023-03-12T01:27:14;10.30;65.30
55313;DHT22;46892;45.668;11.756;2023-03-12T01:29:39;10.30;65.40
55313;DHT22;46892;45.668;11.756;2023-03-12T01:32:05;10.30;65.00
55313;DHT22;46892;45.668;11.756;2023-03-12T01:34:31;10.30;64.90
55313;DHT22;46892;45.668;11.756;2023-03-12T01:37:00;10.30;64.40
55313;DHT22;46892;45.668;11.756;2023-03-12T01:39:26;10.40;63.90
55313;DHT22;46892;45.668;11.756;2023-03-12T01:41:51;10.40;63.40
55313;DHT22;46892;45.668;11.756;2023-03-12T01:44:17;10.40;63.20
55313;DHT22;46892;45.668;11.756;2023-03-12T01:46:43;10.40;63.30
55313;DHT22;46892;45.668;11.756;2023-03-12T01:49:29;10.40;62.60
55313;DHT22;46892;45.668;11.756;2023-03-12T01:52:01;10.40;62.60
55313;DHT22;46892;45.668;11.756;2023-03-12T01:54:34;10.40;62.70
55313;DHT22;46892;45.668;11.756;2023-03-12T01:57:03;10.40;63.00
55313;DHT22;46892;45.668;11.756;2023-03-12T01:59:38;10.40;62.60
55313;DHT22;46892;45.668;11.756;2023-03-12T02:02:05;10.40;62.00
55313;DHT22;46892;45.668;11.756;2023-03-12T02:04:32;10.40;61.80
55313;DHT22;46892;45.668;11.756;2023-03-12T02:07:07;10.50;61.40
55313;DHT22;46892;45.668;11.756;2023-03-12T02:09:37;10.50;61.40
55313;DHT22;46892;45.668;11.756;2023-03-12T02:12:04;10.50;60.90
55313;DHT22;46892;45.668;11.756;2023-03-12T02:14:30;10.40;61.10
55313;DHT22;46892;45.668;11.756;2023-03-12T02:16:56;10.30;61.40
55313;DHT22;46892;45.668;11.756;2023-03-12T02:21:55;10.30;61.60
55313;DHT22;46892;45.668;11.756;2023-03-12T02:24:57;10.30;62.10
55313;DHT22;46892;45.668;11.756;2023-03-12T02:27:26;10.30;62.00
55313;DHT22;46892;45.668;11.756;2023-03-12T02:29:52;10.20;62.00
55313;DHT22;46892;45.668;11.756;2023-03-12T02:32:32;10.20;62.30
55313;DHT22;46892;45.668;11.756;2023-03-12T02:35:00;10.20;62.40
55313;DHT22;46892;45.668;11.756;2023-03-12T02:37:25;10.20;62.30
55313;DHT22;46892;45.668;11.756;2023-03-12T02:40:09;10.10;62.40
55313;DHT22;46892;45.668;11.756;2023-03-12T02:42:38;10.10;62.40
55313;DHT22;46892;45.668;11.756;2023-03-12T02:45:04;10.00;62.30
55313;DHT22;46892;45.668;11.756;2023-03-12T02:47:30;10.10;61.50
55313;DHT22;46892;45.668;11.756;2023-03-12T02:49:55;10.10;61.80
55313;DHT22;46892;45.668;11.756;2023-03-12T02:52:21;10.10;61.90
55313;DHT22;46892;45.668;11.756;2023-03-12T02:54:47;10.00;61.60
55313;DHT22;46892;45.668;11.756;2023-03-12T02:57:12;10.00;62.60
55313;DHT22;46892;45.668;11.756;2023-03-12T02:59:38;10.00;62.70
55313;DHT22;46892;45.668;11.756;2023-03-12T03:02:04;10.00;63.00
55313;DHT22;46892;45.668;11.756;2023-03-12T03:04:31;9.90;63.30
55313;DHT22;46892;45.668;11.756;2023-03-12T03:06:59;9.90;62.60
55313;DHT22;46892;45.668;11.756;2023-03-12T03:09:25;9.90;62.90
55313;DHT22;46892;45.668;11.756;2023-03-12T03:11:51;9.90;63.20
55313;DHT22;46892;45.668;11.756;2023-03-12T03:14:17;9.80;63.40
55313;DHT22;46892;45.668;11.756;2023-03-12T03:16:43;9.80;63.60
55313;DHT22;46892;45.668;11.756;2023-03-12T03:19:08;9.80;64.10
55313;DHT22;46892;45.668;11.756;2023-03-12T03:21:35;9.80;63.90
55313;DHT22;46892;45.668;11.756;2023-03-12T03:24:01;9.70;63.70
55313;DHT22;46892;45.668;11.756;2023-03-12T03:26:27;9.70;64.10
55313;DHT22;46892;45.668;11.756;2023-03-12T03:28:53;9.70;64.40
55313;DHT22;46892;45.668;11.756;2023-03-12T03:31:19;9.70;64.50
55313;DHT22;46892;45.668;11.756;2023-03-12T03:33:45;9.70;64.60
55313;DHT22;46892;45.668;11.756;2023-03-12T03:36:11;9.60;64.50
55313;DHT22;46892;45.668;11.756;2023-03-12T03:38:40;9.60;64.20
55313;DHT22;46892;45.668;11.756;2023-03-12T03:41:06;9.60;64.50
55313;DHT22;46892;45.668;11.756;2023-03-12T03:43:31;9.60;64.60
55313;DHT22;46892;45.668;11.756;2023-03-12T03:45:59;9.60;64.50
55313;DHT22;46892;45.668;11.756;2023-03-12T03:48:25;9.50;64.50
55313;DHT22;46892;45.668;11.756;2023-03-12T03:50:50;9.50;64.70
55313;DHT22;46892;45.668;11.756;2023-03-12T03:53:16;9.50;64.80
55313;DHT22;46892;45.668;11.756;2023-03-12T03:55:44;9.50;65.30
55313;DHT22;46892;45.668;11.756;2023-03-12T03:58:09;9.50;65.10
55313;DHT22;46892;45.668;11.756;2023-03-12T04:00:35;9.50;64.90
55313;DHT22;46892;45.668;11.756;2023-03-12T04:03:01;9.50;64.80
55313;DHT22;46892;45.668;11.756;2023-03-12T04:05:26;9.50;64.60
55313;DHT22;46892;45.668;11.756;2023-03-12T04:07:53;9.50;64.70
55313;DHT22;46892;45.668;11.756;2023-03-12T04:10:20;9.50;64.60
55313;DHT22;46892;45.668;11.756;2023-03-12T04:12:47;9.40;65.20
55313;DHT22;46892;45.668;11.756;2023-03-12T04:15:13;9.40;65.40
55313;DHT22;46892;45.668;11.756;2023-03-12T04:17:41;9.30;65.70
55313;DHT22;46892;45.668;11.756;2023-03-12T04:20:07;9.30;65.60
55313;DHT22;46892;45.668;11.756;2023-03-12T04:22:34;9.20;65.80
55313;DHT22;46892;45.668;11.756;2023-03-12T04:25:00;9.20;65.80
55313;DHT22;46892;45.668;11.756;2023-03-12T04:27:26;9.10;66.00
55313;DHT22;46892;45.668;11.756;2023-03-12T04:29:52;9.00;66.40
55313;DHT22;46892;45.668;11.756;2023-03-12T04:32:18;9.00;66.30
55313;DHT22;46892;45.668;11.756;2023-03-12T04:34:43;9.00;66.40
55313;DHT22;46892;45.668;11.756;2023-03-12T04:37:09;9.00;66.70
55313;DHT22;46892;45.668;11.756;2023-03-12T04:39:42;8.90;66.80
55313;DHT22;46892;45.668;11.756;2023-03-12T04:42:08;8.80;67.20
55313;DHT22;46892;45.668;11.756;2023-03-12T04:44:35;8.80;67.30
55313;DHT22;46892;45.668;11.756;2023-03-12T04:47:00;8.80;67.30
55313;DHT22;46892;45.668;11.756;2023-03-12T04:49:26;8.80;67.50
55313;DHT22;46892;45.668;11.756;2023-03-12T04:51:52;8.70;67.50
55313;DHT22;46892;45.668;11.756;2023-03-12T04:54:18;8.80;67.10
55313;DHT22;46892;45.668;11.756;2023-03-12T04:56:46;8.90;67.00
55313;DHT22;46892;45.668;11.756;2023-03-12T04:59:11;8.90;66.60
55313;DHT22;46892;45.668;11.756;2023-03-12T05:01:37;8.90;66.90
55313;DHT22;46892;45.668;11.756;2023-03-12T05:04:04;8.80;67.00
55313;DHT22;46892;45.668;11.756;2023-03-12T05:06:29;8.80;67.00
55313;DHT22;46892;45.668;11.756;2023-03-12T05:08:55;8.80;67.00
55313;DHT22;46892;45.668;11.756;2023-03-12T05:11:21;8.70;66.90
55313;DHT22;46892;45.668;11.756;2023-03-12T05:13:47;8.70;66.90
55313;DHT22;46892;45.668;11.756;2023-03-12T05:16:14;8.70;66.80
55313;DHT22;46892;45.668;11.756;2023-03-12T05:18:40;8.70;66.80
55313;DHT22;46892;45.668;11.756;2023-03-12T05:21:08;8.60;67.10
55313;DHT22;46892;45.668;11.756;2023-03-12T05:23:35;8.70;66.80
55313;DHT22;46892;45.668;11.756;2023-03-12T05:26:04;8.70;67.50
55313;DHT22;46892;45.668;11.756;2023-03-12T05:28:30;8.70;69.10
55313;DHT22;46892;45.668;11.756;2023-03-12T05:30:57;8.80;69.60
55313;DHT22;46892;45.668;11.756;2023-03-12T05:33:24;8.70;69.40
55313;DHT22;46892;45.668;11.756;2023-03-12T05:35:50;8.70;69.00
55313;DHT22;46892;45.668;11.756;2023-03-12T05:38:16;8.60;68.50
55313;DHT22;46892;45.668;11.756;2023-03-12T05:40:42;8.50;67.90
55313;DHT22;46892;45.668;11.756;2023-03-12T05:43:08;8.30;68.30
55313;DHT22;46892;45.668;11.756;2023-03-12T05:45:33;8.20;68.60
55313;DHT22;46892;45.668;11.756;2023-03-12T05:47:59;8.20;69.00
55313;DHT22;46892;45.668;11.756;2023-03-12T05:50:25;8.20;68.80
55313;DHT22;46892;45.668;11.756;2023-03-12T05:52:50;8.20;68.60
55313;DHT22;46892;45.668;11.756;2023-03-12T05:55:16;8.30;68.60
55313;DHT22;46892;45.668;11.756;2023-03-12T05:57:42;8.30;68.50
55313;DHT22;46892;45.668;11.756;2023-03-12T06:00:08;8.30;68.50
55313;DHT22;46892;45.668;11.756;2023-03-12T06:02:34;8.50;69.10
55313;DHT22;46892;45.668;11.756;2023-03-12T06:05:00;8.70;69.00
55313;DHT22;46892;45.668;11.756;2023-03-12T06:07:26;9.00;67.30
55313;DHT22;46892;45.668;11.756;2023-03-12T06:09:51;9.40;66.10
55313;DHT22;46892;45.668;11.756;2023-03-12T06:12:17;9.80;65.00
55313;DHT22;46892;45.668;11.756;2023-03-12T06:14:42;10.10;63.60
55313;DHT22;46892;45.668;11.756;2023-03-12T06:17:08;10.30;63.10
55313;DHT22;46892;45.668;11.756;2023-03-12T06:19:34;10.50;63.70
55313;DHT22;46892;45.668;11.756;2023-03-12T06:21:59;10.70;63.80
55313;DHT22;46892;45.668;11.756;2023-03-12T06:24:25;11.10;63.90
55313;DHT22;46892;45.668;11.756;2023-03-12T06:26:50;11.30;62.60
55313;DHT22;46892;45.668;11.756;2023-03-12T06:29:16;11.30;61.50
55313;DHT22;46892;45.668;11.756;2023-03-12T06:31:42;11.20;61.30
55313;DHT22;46892;45.668;11.756;2023-03-12T06:34:08;10.90;61.50
55313;DHT22;46892;45.668;11.756;2023-03-12T06:36:35;10.60;60.70
55313;DHT22;46892;45.668;11.756;2023-03-12T06:39:00;10.40;61.60
55313;DHT22;46892;45.668;11.756;2023-03-12T06:41:26;10.30;61.10
55313;DHT22;46892;45.668;11.756;2023-03-12T06:43:52;10.20;60.40
55313;DHT22;46892;45.668;11.756;2023-03-12T06:46:19;10.10;60.90
55313;DHT22;46892;45.668;11.756;2023-03-12T06:48:46;10.20;60.10
55313;DHT22;46892;45.668;11.756;2023-03-12T06:51:13;10.40;60.00
55313;DHT22;46892;45.668;11.756;2023-03-12T06:53:39;10.50;58.70
55313;DHT22;46892;45.668;11.756;2023-03-12T06:56:05;10.70;56.80
55313;DHT22;46892;45.668;11.756;2023-03-12T06:58:43;10.80;56.90
55313;DHT22;46892;45.668;11.756;2023-03-12T07:01:09;11.00;56.60
55313;DHT22;46892;45.668;11.756;2023-03-12T07:03:35;11.30;56.00
55313;DHT22;46892;45.668;11.756;2023-03-12T07:06:01;11.50;53.60
55313;DHT22;46892;45.668;11.756;2023-03-12T07:08:35;11.80;53.50
55313;DHT22;46892;45.668;11.756;2023-03-12T07:11:01;11.90;50.90
55313;DHT22;46892;45.668;11.756;2023-03-12T07:13:28;11.70;51.50
55313;DHT22;46892;45.668;11.756;2023-03-12T07:15:54;11.70;52.80
55313;DHT22;46892;45.668;11.756;2023-03-12T07:18:20;11.60;49.10
55313;DHT22;46892;45.668;11.756;2023-03-12T07:20:45;11.20;48.10
55313;DHT22;46892;45.668;11.756;2023-03-12T07:23:12;11.20;50.80
55313;DHT22;46892;45.668;11.756;2023-03-12T07:25:40;11.10;48.80
55313;DHT22;46892;45.668;11.756;2023-03-12T07:28:07;11.10;49.40
55313;DHT22;46892;45.668;11.756;2023-03-12T07:30:33;11.10;47.60
55313;DHT22;46892;45.668;11.756;2023-03-12T07:33:03;10.90;47.90
55313;DHT22;46892;45.668;11.756;2023-03-12T07:35:29;11.00;49.60
55313;DHT22;46892;45.668;11.756;2023-03-12T07:37:55;11.20;48.50
55313;DHT22;46892;45.668;11.756;2023-03-12T07:40:21;11.30;47.20
55313;DHT22;46892;45.668;11.756;2023-03-12T07:42:49;11.40;45.70
55313;DHT22;46892;45.668;11.756;2023-03-12T07:45:15;11.40;46.90
55313;DHT22;46892;45.668;11.756;2023-03-12T07:47:41;11.50;47.70
55313;DHT22;46892;45.668;11.756;2023-03-12T07:50:07;11.30;45.60
55313;DHT22;46892;45.668;11.756;2023-03-12T07:52:33;11.30;45.90
55313;DHT22;46892;45.668;11.756;2023-03-12T07:54:59;11.40;46.40
55313;DHT22;46892;45.668;11.756;2023-03-12T07:57:24;11.70;45.20
55313;DHT22;46892;45.668;11.756;2023-03-12T07:59:50;11.60;44.00
55313;DHT22;46892;45.668;11.756;2023-03-12T08:02:16;11.60;44.80
55313;DHT22;46892;45.668;11.756;2023-03-12T08:04:42;11.70;46.00
55313;DHT22;46892;45.668;11.756;2023-03-12T08:07:08;12.00;43.50
55313;DHT22;46892;45.668;11.756;2023-03-12T08:09:33;11.80;43.00
55313;DHT22;46892;45.668;11.756;2023-03-12T08:11:59;11.80;42.60
55313;DHT22;46892;45.668;11.756;2023-03-12T08:14:25;11.90;44.50
55313;DHT22;46892;45.668;11.756;2023-03-12T08:16:54;11.90;44.30
55313;DHT22;46892;45.668;11.756;2023-03-12T08:19:19;12.10;43.50
55313;DHT22;46892;45.668;11.756;2023-03-12T08:21:45;12.30;41.90
55313;DHT22;46892;45.668;11.756;2023-03-12T08:24:11;12.50;42.20
55313;DHT22;46892;45.668;11.756;2023-03-12T08:26:36;12.70;43.80
55313;DHT22;46892;45.668;11.756;2023-03-12T08:29:02;13.00;42.80
55313;DHT22;46892;45.668;11.756;2023-03-12T08:31:28;12.90;41.90
55313;DHT22;46892;45.668;11.756;2023-03-12T08:33:54;12.80;42.50
55313;DHT22;46892;45.668;11.756;2023-03-12T08:36:19;12.70;43.90
55313;DHT22;46892;45.668;11.756;2023-03-12T08:38:45;12.40;42.90
55313;DHT22;46892;45.668;11.756;2023-03-12T08:41:11;12.30;44.40
55313;DHT22;46892;45.668;11.756;2023-03-12T08:43:36;12.40;46.20
55313;DHT22;46892;45.668;11.756;2023-03-12T08:46:02;12.60;44.30
55313;DHT22;46892;45.668;11.756;2023-03-12T08:48:30;12.40;45.20
55313;DHT22;46892;45.668;11.756;2023-03-12T08:51:00;12.60;43.60
55313;DHT22;46892;45.668;11.756;2023-03-12T08:53:29;12.80;46.30
55313;DHT22;46892;45.668;11.756;2023-03-12T08:55:55;12.90;43.20
55313;DHT22;46892;45.668;11.756;2023-03-12T08:58:23;13.10;45.10
55313;DHT22;46892;45.668;11.756;2023-03-12T09:00:52;13.30;45.60
55313;DHT22;46892;45.668;11.756;2023-03-12T09:03:19;13.20;41.50
55313;DHT22;46892;45.668;11.756;2023-03-12T09:05:47;13.00;42.90
55313;DHT22;46892;45.668;11.756;2023-03-12T09:08:13;13.00;41.00
55313;DHT22;46892;45.668;11.756;2023-03-12T09:10:39;12.90;42.80
55313;DHT22;46892;45.668;11.756;2023-03-12T09:13:05;12.80;43.70
55313;DHT22;46892;45.668;11.756;2023-03-12T09:15:31;12.70;41.20
55313;DHT22;46892;45.668;11.756;2023-03-12T09:17:57;12.60;42.30
55313;DHT22;46892;45.668;11.756;2023-03-12T09:20:24;12.80;42.80
55313;DHT22;46892;45.668;11.756;2023-03-12T09:22:50;13.00;42.80
55313;DHT22;46892;45.668;11.756;2023-03-12T09:25:16;13.10;42.90
55313;DHT22;46892;45.668;11.756;2023-03-12T09:27:45;13.20;41.30
55313;DHT22;46892;45.668;11.756;2023-03-12T09:30:14;13.20;42.30
55313;DHT22;46892;45.668;11.756;2023-03-12T09:32:40;13.10;40.50
55313;DHT22;46892;45.668;11.756;2023-03-12T09:35:07;12.90;41.60
55313;DHT22;46892;45.668;11.756;2023-03-12T09:37:34;12.80;43.30
55313;DHT22;46892;45.668;11.756;2023-03-12T09:40:00;12.80;43.10
55313;DHT22;46892;45.668;11.756;2023-03-12T09:45:22;13.00;46.00
55313;DHT22;46892;45.668;11.756;2023-03-12T09:47:53;13.00;41.60
55313;DHT22;46892;45.668;11.756;2023-03-12T09:50:34;12.90;43.10
55313;DHT22;46892;45.668;11.756;2023-03-12T09:55:56;13.00;44.60
55313;DHT22;46892;45.668;11.756;2023-03-12T09:58:40;13.20;43.10
55313;DHT22;46892;45.668;11.756;2023-03-12T10:01:34;13.20;45.20
55313;DHT22;46892;45.668;11.756;2023-03-12T10:04:26;13.20;43.90
55313;DHT22;46892;45.668;11.756;2023-03-12T10:07:02;13.10;43.20
55313;DHT22;46892;45.668;11.756;2023-03-12T10:23:40;13.10;43.90
55313;DHT22;46892;45.668;11.756;2023-03-12T10:26:18;13.20;42.20
55313;DHT22;46892;45.668;11.756;2023-03-12T10:28:58;13.20;42.10
55313;DHT22;46892;45.668;11.756;2023-03-12T10:31:33;13.20;42.20
55313;DHT22;46892;45.668;11.756;2023-03-12T10:34:01;13.30;43.80
55313;DHT22;46892;45.668;11.756;2023-03-12T10:36:37;13.30;41.90
55313;DHT22;46892;45.668;11.756;2023-03-12T10:39:04;13.30;41.40
55313;DHT22;46892;45.668;11.756;2023-03-12T10:41:31;13.40;42.40
55313;DHT22;46892;45.668;11.756;2023-03-12T10:44:01;13.30;42.70
55313;DHT22;46892;45.668;11.756;2023-03-12T10:49:35;13.30;43.20
55313;DHT22;46892;45.668;11.756;2023-03-12T10:52:06;13.40;43.50
55313;DHT22;46892;45.668;11.756;2023-03-12T10:54:39;13.40;42.30
55313;DHT22;46892;45.668;11.756;2023-03-12T10:57:06;13.40;40.20
55313;DHT22;46892;45.668;11.756;2023-03-12T10:59:34;13.40;41.10
55313;DHT22;46892;45.668;11.756;2023-03-12T11:02:02;13.50;42.80
55313;DHT22;46892;45.668;11.756;2023-03-12T11:04:32;13.60;44.80
55313;DHT22;46892;45.668;11.756;2023-03-12T11:07:26;13.80;43.80
55313;DHT22;46892;45.668;11.756;2023-03-12T11:10:12;13.70;42.40
55313;DHT22;46892;45.668;11.756;2023-03-12T11:12:38;13.60;42.60
55313;DHT22;46892;45.668;11.756;2023-03-12T11:15:19;13.70;43.20
55313;DHT22;46892;45.668;11.756;2023-03-12T11:17:45;13.70;41.80
55313;DHT22;46892;45.668;11.756;2023-03-12T11:20:24;13.60;42.50
55313;DHT22;46892;45.668;11.756;2023-03-12T11:22:51;13.70;43.30
55313;DHT22;46892;45.668;11.756;2023-03-12T11:25:26;13.80;43.60
55313;DHT22;46892;45.668;11.756;2023-03-12T11:27:54;13.90;44.30
55313;DHT22;46892;45.668;11.756;2023-03-12T11:30:31;14.10;43.70
55313;DHT22;46892;45.668;11.756;2023-03-12T11:32:58;14.20;42.00
55313;DHT22;46892;45.668;11.756;2023-03-12T11:38:23;14.10;41.40
55313;DHT22;46892;45.668;11.756;2023-03-12T11:52:15;14.10;44.30
55313;DHT22;46892;45.668;11.756;2023-03-12T12:00:17;14.30;40.50
55313;DHT22;46892;45.668;11.756;2023-03-12T12:05:43;14.40;41.50
55313;DHT22;46892;45.668;11.756;2023-03-12T12:10:52;14.40;44.20
55313;DHT22;46892;45.668;11.756;2023-03-12T12:13:55;14.40;44.10
55313;DHT22;46892;45.668;11.756;2023-03-12T12:32:15;14.50;43.40
55313;DHT22;46892;45.668;11.756;2023-03-12T12:39:40;14.70;45.40
55313;DHT22;46892;45.668;11.756;2023-03-12T12:42:12;14.80;44.60
55313;DHT22;46892;45.668;11.756;2023-03-12T12:44:47;14.90;43.80
55313;DHT22;46892;45.668;11.756;2023-03-12T12:47:18;14.90;45.00
55313;DHT22;46892;45.668;11.756;2023-03-12T12:49:50;15.00;43.70
55313;DHT22;46892;45.668;11.756;2023-03-12T12:52:18;15.00;43.40
55313;DHT22;46892;45.668;11.756;2023-03-12T12:57:44;15.20;43.60
55313;DHT22;46892;45.668;11.756;2023-03-12T13:03:05;15.20;42.80
55313;DHT22;46892;45.668;11.756;2023-03-12T13:08:03;15.10;43.10
55313;DHT22;46892;45.668;11.756;2023-03-12T13:12:58;15.00;43.30
55313;DHT22;46892;45.668;11.756;2023-03-12T13:20:32;15.10;44.40
55313;DHT22;46892;45.668;11.756;2023-03-12T13:25:46;15.20;44.50
55313;DHT22;46892;45.668;11.756;2023-03-12T13:33:47;15.20;44.30
55313;DHT22;46892;45.668;11.756;2023-03-12T13:41:55;15.30;41.50
55313;DHT22;46892;45.668;11.756;2023-03-12T13:44:31;15.20;42.30
55313;DHT22;46892;45.668;11.756;2023-03-12T13:50:04;15.20;44.30
55313;DHT22;46892;45.668;11.756;2023-03-12T13:52:31;15.30;43.70
55313;DHT22;46892;45.668;11.756;2023-03-12T13:57:53;15.10;40.20
55313;DHT22;46892;45.668;11.756;2023-03-12T14:00:25;14.90;40.90
55313;DHT22;46892;45.668;11.756;2023-03-12T14:05:24;14.90;43.00
55313;DHT22;46892;45.668;11.756;2023-03-12T14:13:19;15.00;43.50
55313;DHT22;46892;45.668;11.756;2023-03-12T14:16:03;15.00;43.80
55313;DHT22;46892;45.668;11.756;2023-03-12T14:18:33;15.00;42.40
55313;DHT22;46892;45.668;11.756;2023-03-12T14:21:06;14.90;44.30
55313;DHT22;46892;45.668;11.756;2023-03-12T14:23:39;15.10;45.00
55313;DHT22;46892;45.668;11.756;2023-03-12T14:26:05;15.10;45.30
55313;DHT22;46892;45.668;11.756;2023-03-12T14:28:39;15.00;43.10
55313;DHT22;46892;45.668;11.756;2023-03-12T14:31:19;15.00;44.10
55313;DHT22;46892;45.668;11.756;2023-03-12T14:34:24;15.00;45.00
55313;DHT22;46892;45.668;11.756;2023-03-12T14:42:19;15.10;45.20
55313;DHT22;46892;45.668;11.756;2023-03-12T14:44:53;15.10;44.40
55313;DHT22;46892;45.668;11.756;2023-03-12T14:47:21;15.30;46.30
55313;DHT22;46892;45.668;11.756;2023-03-12T14:49:56;15.30;43.20
55313;DHT22;46892;45.668;11.756;2023-03-12T14:52:30;15.20;43.90
55313;DHT22;46892;45.668;11.756;2023-03-12T14:55:10;15.30;42.60
55313;DHT22;46892;45.668;11.756;2023-03-12T14:57:36;15.20;43.70
55313;DHT22;46892;45.668;11.756;2023-03-12T15:00:02;15.20;42.00
55313;DHT22;46892;45.668;11.756;2023-03-12T15:02:30;15.10;42.80
55313;DHT22;46892;45.668;11.756;2023-03-12T15:04:58;15.10;43.90
55313;DHT22;46892;45.668;11.756;2023-03-12T15:07:48;15.10;44.20
55313;DHT22;46892;45.668;11.756;2023-03-12T15:10:28;15.10;44.70
55313;DHT22;46892;45.668;11.756;2023-03-12T15:12:56;15.20;45.30
55313;DHT22;46892;45.668;11.756;2023-03-12T15:15:30;15.30;44.40
55313;DHT22;46892;45.668;11.756;2023-03-12T15:18:11;15.20;46.10
55313;DHT22;46892;45.668;11.756;2023-03-12T15:20:38;15.20;44.60
55313;DHT22;46892;45.668;11.756;2023-03-12T15:23:05;15.20;44.40
55313;DHT22;46892;45.668;11.756;2023-03-12T15:25:33;15.10;44.60
55313;DHT22;46892;45.668;11.756;2023-03-12T15:30:29;14.80;43.40
55313;DHT22;46892;45.668;11.756;2023-03-12T15:38:26;14.80;44.70
55313;DHT22;46892;45.668;11.756;2023-03-12T15:40:53;14.90;46.10
55313;DHT22;46892;45.668;11.756;2023-03-12T15:43:22;15.00;45.30
55313;DHT22;46892;45.668;11.756;2023-03-12T15:45:58;14.90;45.10
55313;DHT22;46892;45.668;11.756;2023-03-12T15:48:36;14.80;44.70
55313;DHT22;46892;45.668;11.756;2023-03-12T15:51:28;14.80;44.80
55313;DHT22;46892;45.668;11.756;2023-03-12T15:54:21;14.80;46.50
55313;DHT22;46892;45.668;11.756;2023-03-12T15:56:48;14.80;43.90
55313;DHT22;46892;45.668;11.756;2023-03-12T16:01:47;14.60;45.80
55313;DHT22;46892;45.668;11.756;2023-03-12T16:04:13;14.60;45.00
55313;DHT22;46892;45.668;11.756;2023-03-12T16:06:38;14.60;45.70
55313;DHT22;46892;45.668;11.756;2023-03-12T16:09:08;14.50;47.00
55313;DHT22;46892;45.668;11.756;2023-03-12T16:11:35;14.50;50.10
55313;DHT22;46892;45.668;11.756;2023-03-12T16:14:15;14.40;50.20
55313;DHT22;46892;45.668;11.756;2023-03-12T16:16:41;14.40;50.90
55313;DHT22;46892;45.668;11.756;2023-03-12T16:19:14;14.30;50.60
55313;DHT22;46892;45.668;11.756;2023-03-12T16:21:42;14.30;49.30
55313;DHT22;46892;45.668;11.756;2023-03-12T16:24:08;14.30;49.90
55313;DHT22;46892;45.668;11.756;2023-03-12T16:26:37;14.20;51.90
55313;DHT22;46892;45.668;11.756;2023-03-12T16:29:08;14.10;48.80
55313;DHT22;46892;45.668;11.756;2023-03-12T16:31:34;14.20;48.50
55313;DHT22;46892;45.668;11.756;2023-03-12T16:34:00;14.10;48.50
55313;DHT22;46892;45.668;11.756;2023-03-12T16:36:26;14.00;48.70
55313;DHT22;46892;45.668;11.756;2023-03-12T16:38:52;13.90;48.40
55313;DHT22;46892;45.668;11.756;2023-03-12T16:41:18;13.80;47.90
55313;DHT22;46892;45.668;11.756;2023-03-12T16:43:47;13.80;47.60
55313;DHT22;46892;45.668;11.756;2023-03-12T16:46:15;13.70;47.90
55313;DHT22;46892;45.668;11.756;2023-03-12T16:48:43;13.60;48.90
55313;DHT22;46892;45.668;11.756;2023-03-12T16:51:13;13.40;49.30
55313;DHT22;46892;45.668;11.756;2023-03-12T16:53:39;13.30;48.80
55313;DHT22;46892;45.668;11.756;2023-03-12T16:56:06;13.30;47.70
55313;DHT22;46892;45.668;11.756;2023-03-12T16:58:31;13.20;48.50
55313;DHT22;46892;45.668;11.756;2023-03-12T17:00:57;13.10;49.10
55313;DHT22;46892;45.668;11.756;2023-03-12T17:03:32;13.00;49.00
55313;DHT22;46892;45.668;11.756;2023-03-12T17:05:58;12.90;49.10
55313;DHT22;46892;45.668;11.756;2023-03-12T17:08:24;12.80;50.80
55313;DHT22;46892;45.668;11.756;2023-03-12T17:10:50;12.70;50.30
55313;DHT22;46892;45.668;11.756;2023-03-12T17:13:21;12.50;52.00
55313;DHT22;46892;45.668;11.756;2023-03-12T17:15:48;12.40;51.60
55313;DHT22;46892;45.668;11.756;2023-03-12T17:18:14;12.30;52.20
55313;DHT22;46892;45.668;11.756;2023-03-12T17:20:40;12.20;51.80
55313;DHT22;46892;45.668;11.756;2023-03-12T17:23:07;12.20;53.20
55313;DHT22;46892;45.668;11.756;2023-03-12T17:25:35;12.00;53.50
55313;DHT22;46892;45.668;11.756;2023-03-12T17:28:02;11.80;53.90
55313;DHT22;46892;45.668;11.756;2023-03-12T17:30:28;11.80;54.60
55313;DHT22;46892;45.668;11.756;2023-03-12T17:33:15;11.70;55.10
55313;DHT22;46892;45.668;11.756;2023-03-12T17:35:41;11.60;55.50
55313;DHT22;46892;45.668;11.756;2023-03-12T17:38:08;11.50;55.20
55313;DHT22;46892;45.668;11.756;2023-03-12T17:40:34;11.50;54.90